Time;durP1;ratioP1;P1;durP2;ratioP2;P2;SDS_P1;SDS_P2;PMS_P1;PMS_P2;Temp;Humidity;BMP_temperature;BMP_pressure;BME280_temperature;BME280_humidity;BME280_pressure;Samples;Min_cycle;Max_cycle;Signal;HPM_P1;HPM_P2
2022/09/29 00:00:43;;;;;;;4.53;2.90;;;;;;;11.79;57.73;98219.06;5092089;28;20056;-60
2022/09/29 00:03:09;;;;;;;4.22;2.70;;;;;;;11.77;57.73;98228.06;5092134;28;20082;-60
2022/09/29 00:05:36;;;;;;;5.18;2.80;;;;;;;11.75;57.81;98225.56;5091901;28;20051;-59
2022/09/29 00:08:03;;;;;;;2.42;2.22;;;;;;;11.74;57.73;98226.53;5092303;28;20079;-62
2022/09/29 00:10:29;;;;;;;2.88;2.58;;;;;;;11.73;57.77;98222.22;5092006;28;20094;-60
2022/09/29 00:12:56;;;;;;;2.70;2.50;;;;;;;11.72;57.83;98223.19;5091636;28;20056;-59
2022/09/29 00:15:22;;;;;;;2.97;2.72;;;;;;;11.71;57.96;98230.25;5091773;28;20333;-59
2022/09/29 00:17:49;;;;;;;3.17;2.63;;;;;;;11.70;57.96;98227.78;5091896;28;20091;-61
2022/09/29 00:20:36;;;;;;;4.55;3.00;;;;;;;11.68;57.90;98234.97;5090381;28;20047;-60
2022/09/29 00:23:03;;;;;;;3.33;3.03;;;;;;;11.62;58.10;98231.06;5091579;28;20052;-60
2022/09/29 00:25:30;;;;;;;3.35;3.00;;;;;;;11.58;57.76;98225.22;5091740;28;20048;-60
2022/09/29 00:27:56;;;;;;;6.20;3.38;;;;;;;11.54;58.30;98226.44;5091497;28;20083;-61
2022/09/29 00:30:23;;;;;;;3.63;3.33;;;;;;;11.51;58.45;98224.06;5091317;28;20051;-63
2022/09/29 00:32:50;;;;;;;4.30;3.70;;;;;;;11.46;58.61;98218.38;5091354;28;20130;-60
2022/09/29 00:35:17;;;;;;;3.20;3.00;;;;;;;11.43;58.79;98215.97;5091498;28;20453;-59
2022/09/29 00:37:43;;;;;;;4.68;3.63;;;;;;;11.39;58.89;98225.97;5091666;28;20117;-61
2022/09/29 00:40:10;;;;;;;3.55;3.25;;;;;;;11.37;58.84;98227.06;5091280;28;20095;-60
2022/09/29 00:42:37;;;;;;;3.60;3.30;;;;;;;11.33;58.90;98222.03;5091385;28;20239;-60
2022/09/29 00:45:20;;;;;;;4.70;4.07;;;;;;;11.28;60.26;98226.88;5091219;28;20090;-60
2022/09/29 00:47:55;;;;;;;4.43;4.00;;;;;;;11.28;59.77;98226.03;5091483;28;20408;-60
2022/09/29 00:50:31;;;;;;;6.57;4.10;;;;;;;11.26;59.74;98227.97;5091322;28;20055;-60
2022/09/29 00:53:01;;;;;;;6.82;4.20;;;;;;;11.25;59.43;98229.75;5089879;28;20056;-62
2022/09/29 00:55:33;;;;;;;5.05;4.45;;;;;;;11.23;59.68;98229.06;5091043;28;20052;-61
2022/09/29 00:58:26;;;;;;;5.15;4.60;;;;;;;11.19;60.51;98225.88;5090799;28;20094;-61
2022/09/29 01:00:54;;;;;;;5.00;4.47;;;;;;;11.21;59.21;98234.47;5088854;28;20086;-60
2022/09/29 01:03:23;;;;;;;5.05;4.55;;;;;;;11.23;59.38;98236.97;5091334;28;20048;-60
2022/09/29 01:05:56;;;;;;;7.10;4.75;;;;;;;11.21;60.16;98225.72;5109173;28;20108;-59
2022/09/29 01:08:32;;;;;;;6.55;4.97;;;;;;;11.22;60.37;98224.78;5109549;28;20435;-60
2022/09/29 01:11:01;;;;;;;6.63;5.10;;;;;;;11.27;59.60;98234.91;5144156;27;20104;-60
2022/09/29 01:13:29;;;;;;;5.90;4.82;;;;;;;11.27;59.31;98222.56;5109655;28;20078;-60
2022/09/29 01:15:55;;;;;;;6.00;5.40;;;;;;;11.29;59.34;98223.25;5111102;28;20044;-60
2022/09/29 01:18:22;;;;;;;6.60;5.43;;;;;;;11.30;59.34;98218.84;5110902;28;20139;-62
2022/09/29 01:21:07;;;;;;;7.35;5.32;;;;;;;11.30;60.01;98222.31;5110855;28;20108;-59
2022/09/29 01:24:05;;;;;;;6.35;4.70;;;;;;;11.30;59.86;98227.59;5111102;28;20043;-60
2022/09/29 01:26:32;;;;;;;6.38;5.00;;;;;;;11.37;58.99;98221.78;5056709;28;20511;-62
2022/09/29 01:29:36;;;;;;;5.93;5.20;;;;;;;11.33;60.04;98229.94;5111170;28;20096;-60
2022/09/29 01:32:17;;;;;;;5.38;4.88;;;;;;;11.37;59.54;98221.78;5109525;28;20108;-61
2022/09/29 01:35:04;;;;;;;5.82;5.00;;;;;;;11.37;59.93;98216.53;5110905;28;20087;-60
2022/09/29 01:37:48;;;;;;;5.40;4.90;;;;;;;11.38;59.95;98228.72;5109231;28;20039;-60
2022/09/29 01:40:25;;;;;;;6.35;5.75;;;;;;;11.41;59.57;98228.47;5110814;28;20048;-59
2022/09/29 01:42:56;;;;;;;6.47;5.57;;;;;;;11.43;59.62;98235.28;5110771;28;20054;-60
2022/09/29 01:45:35;;;;;;;8.18;5.88;;;;;;;11.43;60.04;98231.78;5110962;28;20051;-60
2022/09/29 01:48:08;;;;;;;7.70;6.28;;;;;;;11.46;59.51;98232.38;5109381;28;20089;-60
2022/09/29 01:50:39;;;;;;;6.57;5.88;;;;;;;11.47;59.33;98228.78;5107089;28;20043;-59
2022/09/29 01:53:13;;;;;;;9.10;5.40;;;;;;;11.47;59.50;98238.47;5108251;28;20096;-62
2022/09/29 01:55:52;;;;;;;6.35;5.63;;;;;;;11.44;59.97;98239.56;5101053;28;20056;-59
2022/09/29 01:58:29;;;;;;;8.95;7.18;;;;;;;11.45;59.52;98235.97;5110310;28;20083;-61
2022/09/29 02:01:00;;;;;;;9.00;7.00;;;;;;;11.45;59.28;98235.97;5110707;28;20083;-60
2022/09/29 02:03:34;;;;;;;8.70;6.75;;;;;;;11.43;59.36;98232.63;5110549;28;20059;-61
2022/09/29 02:06:07;;;;;;;8.93;6.35;;;;;;;11.39;59.48;98233.88;5110891;28;20100;-60
2022/09/29 02:08:54;;;;;;;8.20;6.90;;;;;;;11.37;59.15;98230.53;5110558;28;20079;-61
2022/09/29 02:11:20;;;;;;;11.40;7.10;;;;;;;11.33;59.20;98232.56;5110750;28;20052;-62
2022/09/29 02:14:20;;;;;;;8.75;7.57;;;;;;;11.27;60.43;98234.91;5110590;28;20075;-61
2022/09/29 02:17:20;;;;;;;8.60;7.53;;;;;;;11.25;60.63;98239.47;5110553;28;20039;-60
2022/09/29 02:19:50;;;;;;;9.00;8.00;;;;;;;11.25;59.82;98239.47;5109469;28;20500;-60
2022/09/29 02:22:17;;;;;;;9.40;8.40;;;;;;;11.22;59.89;98240.56;5109487;28;20052;-59
2022/09/29 02:24:44;;;;;;;8.93;8.00;;;;;;;11.18;60.14;98239.97;5110423;28;20048;-61
2022/09/29 02:27:11;;;;;;;10.10;8.35;;;;;;;11.16;60.19;98241.06;5110548;28;20134;-60
2022/09/29 02:29:38;;;;;;;9.95;8.93;;;;;;;11.12;60.30;98240.50;5109979;28;20786;-61
2022/09/29 02:32:08;;;;;;;10.65;8.85;;;;;;;11.08;60.47;98237.31;5110544;28;20086;-59
2022/09/29 02:34:44;;;;;;;11.88;8.70;;;;;;;11.03;61.33;98242.09;5110334;28;20090;-60
2022/09/29 02:37:53;;;;;;;9.05;8.15;;;;;;;10.97;62.05;98240.00;5110312;28;20503;-60
2022/09/29 02:40:32;;;;;;;9.57;7.80;;;;;;;10.94;61.85;98232.34;5108740;28;20442;-60
2022/09/29 02:43:17;;;;;;;10.13;8.88;;;;;;;10.91;62.09;98237.84;5110713;28;20168;-60
2022/09/29 02:45:55;;;;;;;10.75;8.93;;;;;;;10.91;60.57;98243.13;5113996;28;20048;-60
2022/09/29 02:48:46;;;;;;;9.13;8.07;;;;;;;10.85;62.25;98239.22;5113682;28;20499;-60
2022/09/29 02:51:24;;;;;;;8.98;8.05;;;;;;;10.85;61.75;98241.00;5112362;28;20073;-60
2022/09/29 02:54:16;;;;;;;9.55;8.20;;;;;;;10.82;61.99;98239.47;5114017;28;20415;-62
2022/09/29 02:57:00;;;;;;;11.30;8.57;;;;;;;10.79;62.28;98243.19;5114068;28;20100;-60
2022/09/29 02:59:36;;;;;;;10.65;8.60;;;;;;;10.79;62.24;98244.97;5112289;28;20563;-62
2022/09/29 03:02:02;;;;;;;9.35;8.35;;;;;;;10.78;61.11;98248.56;5113651;28;20055;-62
2022/09/29 03:04:29;;;;;;;11.32;8.70;;;;;;;10.74;61.40;98248.00;5113573;28;20059;-60
2022/09/29 03:06:56;;;;;;;10.98;8.57;;;;;;;10.71;61.31;98245.63;5113380;28;20134;-60
2022/09/29 03:09:22;;;;;;;12.90;9.38;;;;;;;10.70;61.58;98251.84;5113154;28;20073;-61
2022/09/29 03:11:49;;;;;;;11.10;9.18;;;;;;;10.68;61.53;98249.34;5113559;27;20127;-60
2022/09/29 03:14:16;;;;;;;12.73;8.95;;;;;;;10.67;61.70;98252.09;5113407;28;20047;-60
2022/09/29 03:16:43;;;;;;;11.45;9.90;;;;;;;10.64;61.86;98253.19;5113608;28;20083;-60
2022/09/29 03:19:10;;;;;;;11.40;9.85;;;;;;;10.61;61.97;98248.16;5113204;28;20055;-60
2022/09/29 03:21:36;;;;;;;12.20;10.88;;;;;;;10.59;61.80;98249.25;5113179;28;20055;-60
2022/09/29 03:24:03;;;;;;;16.67;11.45;;;;;;;10.59;61.94;98243.97;5113376;28;20048;-61
2022/09/29 03:26:29;;;;;;;48.70;14.18;;;;;;;10.58;62.30;98248.41;5110692;28;20047;-60
2022/09/29 03:28:56;;;;;;;66.38;15.55;;;;;;;10.58;62.45;98244.94;5112902;28;20073;-59
2022/09/29 03:31:23;;;;;;;54.60;14.45;;;;;;;10.58;62.52;98244.94;5113160;27;20519;-60
2022/09/29 03:33:49;;;;;;;72.25;16.02;;;;;;;10.59;62.60;98244.81;5113486;28;20052;-60
2022/09/29 03:36:16;;;;;;;21.35;13.93;;;;;;;10.59;62.69;98241.34;5112726;28;20090;-60
2022/09/29 03:38:44;;;;;;;27.08;14.10;;;;;;;10.62;62.85;98251.63;5112918;28;20142;-59
2022/09/29 03:41:11;;;;;;;31.17;13.75;;;;;;;10.65;62.85;98254.03;5113004;28;20048;-60
2022/09/29 03:43:37;;;;;;;36.35;14.65;;;;;;;10.68;62.95;98254.59;5113114;28;20444;-62
2022/09/29 03:46:04;;;;;;;31.48;14.65;;;;;;;10.71;62.84;98256.13;5112875;28;20093;-61
2022/09/29 03:48:33;;;;;;;35.72;15.18;;;;;;;10.74;62.70;98250.63;5112722;28;20052;-59
2022/09/29 03:51:00;;;;;;;19.10;12.82;;;;;;;10.77;62.68;98253.00;5112687;28;20100;-60
2022/09/29 03:53:27;;;;;;;63.03;15.93;;;;;;;10.78;62.63;98254.69;5112538;28;20083;-60
2022/09/29 03:55:54;;;;;;;27.08;14.82;;;;;;;10.79;62.52;98251.09;5112382;28;20541;-61
2022/09/29 03:58:20;;;;;;;30.10;14.30;;;;;;;10.79;62.62;98248.44;5112418;28;20089;-60
2022/09/29 04:00:48;;;;;;;19.88;14.68;;;;;;;10.81;62.73;98251.78;5112590;28;20074;-60
2022/09/29 04:03:15;;;;;;;45.58;15.10;;;;;;;10.82;62.56;98252.63;5112391;28;20048;-60
2022/09/29 04:05:44;;;;;;;46.08;14.98;;;;;;;10.82;62.82;98253.47;5112308;28;20086;-61
2022/09/29 04:08:11;;;;;;;54.05;15.45;;;;;;;10.84;62.61;98253.31;5111061;28;20101;-59
2022/09/29 04:10:38;;;;;;;46.78;15.73;;;;;;;10.86;62.53;98254.03;5112422;28;20126;-60
2022/09/29 04:13:06;;;;;;;38.17;14.95;;;;;;;10.85;62.45;98257.66;5112333;28;20048;-60
2022/09/29 04:15:33;;;;;;;55.67;16.02;;;;;;;10.86;62.47;98264.56;5111014;28;20087;-60
2022/09/29 04:17:59;;;;;;;39.97;13.27;;;;;;;10.86;62.40;98261.09;5112497;28;20055;-61
2022/09/29 04:20:26;;;;;;;23.88;14.32;;;;;;;10.86;62.52;98264.56;5112138;28;20446;-61
2022/09/29 04:22:53;;;;;;;36.10;14.20;;;;;;;10.86;62.51;98269.00;5112067;28;20130;-60
2022/09/29 04:25:19;;;;;;;43.88;15.63;;;;;;;10.87;62.46;98268.88;5112385;28;20048;-60
2022/09/29 04:27:46;;;;;;;102.45;16.73;;;;;;;10.86;62.33;98263.72;5111937;28;20572;-60
2022/09/29 04:30:12;;;;;;;69.35;17.23;;;;;;;10.84;62.40;98266.47;5111801;28;20052;-61
2022/09/29 04:32:39;;;;;;;51.28;15.55;;;;;;;10.80;62.13;98273.81;5111740;28;20079;-60
2022/09/29 04:35:06;;;;;;;18.25;13.80;;;;;;;10.76;62.36;98277.66;5112317;28;20070;-58
2022/09/29 04:37:33;;;;;;;38.35;14.85;;;;;;;10.73;62.59;98285.78;5111757;28;20051;-61
2022/09/29 04:40:01;;;;;;;55.45;15.95;;;;;;;10.71;62.54;98281.59;5111724;28;20079;-59
2022/09/29 04:42:28;;;;;;;43.72;16.67;;;;;;;10.69;62.72;98287.00;5110591;28;20126;-60
2022/09/29 04:44:54;;;;;;;23.58;15.52;;;;;;;10.68;62.77;98285.31;5111598;28;20449;-62
2022/09/29 04:47:21;;;;;;;23.90;15.95;;;;;;;10.68;62.96;98291.44;5111904;28;20134;-60
2022/09/29 04:49:48;;;;;;;58.78;18.13;;;;;;;10.68;63.02;98287.97;5109973;28;20096;-61
2022/09/29 04:52:14;;;;;;;27.45;17.15;;;;;;;10.68;63.17;98286.19;5111740;28;20124;-61
2022/09/29 04:54:41;;;;;;;28.95;17.48;;;;;;;10.68;63.14;98288.81;5111526;28;20557;-61
2022/09/29 04:57:09;;;;;;;34.25;18.70;;;;;;;10.69;63.54;98289.63;5111387;28;20526;-60
2022/09/29 04:59:36;;;;;;;32.35;19.80;;;;;;;10.72;63.56;98291.19;5109980;28;20403;-60
2022/09/29 05:02:02;;;;;;;64.82;21.38;;;;;;;10.75;63.59;98296.19;5111385;28;20519;-60
2022/09/29 05:04:29;;;;;;;70.72;21.05;;;;;;;10.79;63.47;98302.88;5111475;28;20531;-60
2022/09/29 05:06:55;;;;;;;26.70;18.17;;;;;;;10.81;63.31;98299.16;5110687;28;20120;-61
2022/09/29 05:09:22;;;;;;;62.85;19.95;;;;;;;10.85;63.47;98310.28;5111173;28;20318;-61
2022/09/29 05:11:50;;;;;;;35.88;18.85;;;;;;;10.87;63.22;98299.63;5111365;28;20051;-61
2022/09/29 05:14:17;;;;;;;87.65;20.27;;;;;;;10.88;63.15;98302.13;5111020;28;20147;-60
2022/09/29 05:16:44;;;;;;;99.68;20.50;;;;;;;10.89;63.13;98305.59;5111324;28;20044;-60
2022/09/29 05:19:10;;;;;;;90.90;19.42;;;;;;;10.89;63.13;98302.97;5111025;28;20508;-61
2022/09/29 05:21:37;;;;;;;79.90;19.20;;;;;;;10.89;63.11;98306.44;5111096;28;20093;-58
2022/09/29 05:24:04;;;;;;;130.95;19.90;;;;;;;10.88;63.12;98317.09;5110914;28;20052;-61
2022/09/29 05:26:31;;;;;;;120.20;20.23;;;;;;;10.85;63.00;98312.06;5111741;27;20056;-60
2022/09/29 05:28:57;;;;;;;53.47;18.00;;;;;;;10.84;62.94;98320.94;5110818;28;20492;-61
2022/09/29 05:31:24;;;;;;;60.53;18.70;;;;;;;10.80;63.13;98317.69;5110938;28;20048;-61
2022/09/29 05:33:51;;;;;;;36.35;17.02;;;;;;;10.78;63.46;98333.66;5111177;28;20039;-60
2022/09/29 05:36:17;;;;;;;80.97;20.90;;;;;;;10.77;63.10;98328.50;5109787;28;20047;-59
2022/09/29 05:38:44;;;;;;;82.85;20.20;;;;;;;10.76;63.22;98329.47;5110221;28;20087;-62
2022/09/29 05:41:12;;;;;;;50.95;19.10;;;;;;;10.74;63.54;98329.59;5110042;28;20083;-62
2022/09/29 05:43:39;;;;;;;139.25;19.98;;;;;;;10.76;63.45;98332.91;5110609;28;20040;-60
2022/09/29 05:46:08;;;;;;;51.20;17.80;;;;;;;10.74;63.68;98332.22;5110551;28;20058;-60
2022/09/29 05:48:36;;;;;;;55.40;19.77;;;;;;;10.76;63.35;98330.28;5110852;28;20137;-60
2022/09/29 05:51:11;;;;;;;73.07;20.88;;;;;;;10.75;64.33;98335.66;5109451;28;20052;-61
2022/09/29 05:53:38;;;;;;;149.43;22.52;;;;;;;10.78;63.54;98344.16;5110795;28;20086;-61
2022/09/29 05:56:10;;;;;;;43.15;19.50;;;;;;;10.79;63.70;98343.22;5110569;28;20083;-61
2022/09/29 05:58:38;;;;;;;81.03;19.00;;;;;;;10.80;63.51;98331.72;5110615;28;20050;-60
2022/09/29 06:01:06;;;;;;;80.75;20.48;;;;;;;10.82;63.57;98342.13;5110218;28;20571;-61
2022/09/29 06:03:34;;;;;;;88.38;20.20;;;;;;;10.82;63.64;98340.34;5109658;28;20063;-61
2022/09/29 06:06:22;;;;;;;93.75;21.25;;;;;;;10.79;64.57;98337.94;5109434;28;20052;-60
2022/09/29 06:08:49;;;;;;;64.78;18.67;;;;;;;10.86;63.37;98340.91;5109535;28;20083;-62
2022/09/29 06:11:19;;;;;;;165.98;21.45;;;;;;;10.86;63.55;98346.19;5110677;28;20052;-60
2022/09/29 06:13:48;;;;;;;118.78;19.60;;;;;;;10.85;63.61;98347.16;5109447;28;20052;-60
2022/09/29 06:16:17;;;;;;;240.63;25.13;;;;;;;10.86;63.26;98347.97;5110543;28;20415;-61
2022/09/29 06:18:44;;;;;;;180.77;22.15;;;;;;;10.85;63.17;98348.94;5113698;28;20059;-61
2022/09/29 06:21:16;;;;;;;230.43;24.45;;;;;;;10.80;63.75;98347.50;5114804;28;20059;-60
2022/09/29 06:23:42;;;;;;;57.30;18.17;;;;;;;10.79;63.19;98345.00;5113397;28;20407;-61
2022/09/29 06:26:12;;;;;;;72.72;20.65;;;;;;;10.74;63.64;98348.00;5114227;28;20047;-61
2022/09/29 06:28:39;;;;;;;135.45;20.13;;;;;;;10.74;63.41;98347.16;5113007;28;20075;-62
2022/09/29 06:31:12;;;;;;;105.22;18.42;;;;;;;10.73;63.84;98351.56;5114198;28;20048;-61
2022/09/29 06:33:39;;;;;;;106.28;20.25;;;;;;;10.75;63.55;98354.09;5114090;28;20089;-59
2022/09/29 06:39:09;;;;;;;183.13;21.92;;;;;;;10.77;63.69;98358.28;5113819;28;20060;-61
2022/09/29 06:41:36;;;;;;;182.98;22.23;;;;;;;10.77;63.56;98354.81;5112715;28;20044;-60
2022/09/29 06:44:03;;;;;;;132.43;20.67;;;;;;;10.78;63.83;98359.13;5114400;28;20574;-60
2022/09/29 06:46:30;;;;;;;118.50;21.92;;;;;;;10.79;63.90;98360.78;5114248;28;20108;-61
2022/09/29 06:48:57;;;;;;;113.85;19.33;;;;;;;10.81;63.94;98364.97;5112561;28;20068;-59
2022/09/29 06:51:24;;;;;;;96.40;19.60;;;;;;;10.82;63.98;98361.38;5114113;28;20127;-61
2022/09/29 06:54:06;;;;;;;151.03;20.93;;;;;;;10.86;63.82;98366.38;5112794;28;20133;-60
2022/09/29 06:56:38;;;;;;;135.52;21.42;;;;;;;10.87;63.83;98363.63;5113812;28;20274;-61
2022/09/29 06:59:05;;;;;;;165.52;22.98;;;;;;;10.87;63.80;98368.91;5113396;28;20561;-60
2022/09/29 07:01:32;;;;;;;141.77;22.15;;;;;;;10.88;63.63;98375.81;5113923;28;20079;-60
2022/09/29 07:04:01;;;;;;;41.75;20.35;;;;;;;10.86;63.74;98372.50;5113702;28;20459;-61
2022/09/29 07:06:29;;;;;;;78.50;19.95;;;;;;;10.86;63.91;98379.53;5112437;28;20408;-62
2022/09/29 07:08:57;;;;;;;49.67;19.40;;;;;;;10.86;63.98;98377.75;5113257;28;20112;-60
2022/09/29 07:11:25;;;;;;;92.68;22.17;;;;;;;10.86;64.11;98377.75;5113624;28;20077;-61
2022/09/29 07:13:52;;;;;;;56.05;21.77;;;;;;;10.87;64.06;98383.88;5113447;28;20126;-59
2022/09/29 07:16:24;;;;;;;68.75;21.42;;;;;;;10.87;64.13;98378.63;5112267;28;20059;-59
2022/09/29 07:18:51;;;;;;;75.43;23.08;;;;;;;10.86;64.03;98383.03;5113093;28;20132;-59
2022/09/29 07:21:18;;;;;;;41.70;21.40;;;;;;;10.85;63.90;98394.53;5111917;28;20080;-61
2022/09/29 07:23:46;;;;;;;32.45;23.25;;;;;;;10.82;64.07;98386.88;5113272;28;20495;-60
2022/09/29 07:26:15;;;;;;;28.45;21.80;;;;;;;10.78;64.23;98388.91;5111912;28;20098;-61
2022/09/29 07:28:42;;;;;;;28.50;21.40;;;;;;;10.78;64.22;98393.34;5112902;28;20055;-59
2022/09/29 07:31:12;;;;;;;28.02;21.40;;;;;;;10.74;65.08;98395.38;5113112;28;20083;-60
2022/09/29 07:33:42;;;;;;;29.50;21.73;;;;;;;10.75;64.58;98390.94;5113108;28;20113;-60
2022/09/29 07:36:09;;;;;;;28.08;20.70;;;;;;;10.75;64.72;98391.78;5113238;28;20514;-59
2022/09/29 07:38:36;;;;;;;26.55;19.70;;;;;;;10.75;64.89;98397.06;5112688;28;20044;-60
2022/09/29 07:41:05;;;;;;;28.15;21.48;;;;;;;10.77;65.23;98402.19;5113073;28;20094;-60
2022/09/29 07:43:32;;;;;;;26.45;20.02;;;;;;;10.81;65.06;98407.06;5111729;28;20055;-60
2022/09/29 07:45:59;;;;;;;29.08;21.85;;;;;;;10.85;65.37;98404.22;5112862;28;20101;-61
2022/09/29 07:48:26;;;;;;;29.35;21.00;;;;;;;10.88;65.41;98401.34;5112544;28;20083;-59
2022/09/29 07:51:04;;;;;;;27.00;21.23;;;;;;;10.90;66.07;98408.16;5112778;28;20133;-61
2022/09/29 07:53:31;;;;;;;24.65;19.17;;;;;;;10.95;65.39;98413.03;5111411;28;20048;-60
2022/09/29 07:56:06;;;;;;;26.25;19.85;;;;;;;10.97;66.21;98410.28;5111662;28;20050;-60
2022/09/29 07:58:33;;;;;;;24.60;18.85;;;;;;;11.02;65.50;98405.47;5112616;28;20043;-61
2022/09/29 08:01:03;;;;;;;23.83;18.73;;;;;;;11.06;65.61;98413.00;5111187;28;20093;-59
2022/09/29 08:03:31;;;;;;;25.48;17.65;;;;;;;11.13;65.46;98425.66;5112625;28;20055;-61
2022/09/29 08:05:58;;;;;;;21.73;16.88;;;;;;;11.18;65.58;98426.16;5111252;28;20047;-60
2022/09/29 08:08:25;;;;;;;25.08;18.45;;;;;;;11.23;65.36;98434.50;5112450;28;20067;-60
2022/09/29 08:11:10;;;;;;;22.90;17.67;;;;;;;11.26;65.95;98439.53;5112335;28;20051;-60
2022/09/29 08:13:52;;;;;;;19.95;15.48;;;;;;;11.34;65.07;98442.34;5111412;28;20144;-61
2022/09/29 08:16:19;;;;;;;24.73;18.75;;;;;;;11.39;65.05;98442.00;5112137;28;20199;-60
2022/09/29 08:18:45;;;;;;;22.20;17.23;;;;;;;11.43;65.10;98447.84;5112157;28;20047;-62
2022/09/29 08:21:14;;;;;;;24.58;18.30;;;;;;;11.46;65.05;98448.44;5112626;28;20047;-61
2022/09/29 08:23:42;;;;;;;27.38;18.42;;;;;;;11.47;65.08;98439.56;5112143;28;20069;-60
2022/09/29 08:26:13;;;;;;;24.45;18.33;;;;;;;11.51;65.26;98447.25;5112034;28;20082;-60
2022/09/29 08:28:40;;;;;;;25.80;17.42;;;;;;;11.54;65.14;98455.72;5112256;28;20082;-60
2022/09/29 08:31:19;;;;;;;26.20;19.25;;;;;;;11.56;65.92;98455.59;5111820;28;20091;-60
2022/09/29 08:33:48;;;;;;;22.95;16.17;;;;;;;11.63;65.27;98458.56;5112164;28;20055;-60
2022/09/29 08:36:16;;;;;;;21.85;17.30;;;;;;;11.68;65.33;98464.28;5111769;28;20131;-59
2022/09/29 08:38:45;;;;;;;21.13;16.02;;;;;;;11.72;65.29;98469.19;5110473;28;20051;-60
2022/09/29 08:41:51;;;;;;;22.35;17.67;;;;;;;11.74;65.75;98471.69;5110983;28;20047;-60
2022/09/29 08:44:21;;;;;;;24.15;17.38;;;;;;;11.83;64.85;98468.28;5111890;28;20086;-61
2022/09/29 08:47:38;;;;;;;24.25;18.70;;;;;;;11.85;65.22;98471.63;5111600;28;20056;-59
2022/09/29 08:50:16;;;;;;;19.98;16.33;;;;;;;11.92;64.62;98465.84;5110769;28;20094;-60
2022/09/29 08:52:50;;;;;;;26.88;17.52;;;;;;;11.93;64.80;98465.69;5111680;28;20047;-61
2022/09/29 08:55:18;;;;;;;22.25;17.20;;;;;;;11.98;64.60;98467.97;5111589;28;20457;-63
2022/09/29 08:58:00;;;;;;;21.67;16.25;;;;;;;12.02;65.12;98458.84;5111531;28;20051;-60
2022/09/29 09:00:40;;;;;;;23.20;17.38;;;;;;;12.08;65.37;98470.72;5111267;28;20044;-60
2022/09/29 09:03:38;;;;;;;25.05;16.05;;;;;;;12.15;65.08;98474.47;5111429;28;20047;-59
2022/09/29 09:06:07;;;;;;;18.42;15.68;;;;;;;12.29;64.77;98481.22;5111495;28;20144;-62
2022/09/29 09:09:13;;;;;;;19.85;16.00;;;;;;;12.33;65.08;98480.00;5111438;28;20073;-60
2022/09/29 09:11:52;;;;;;;19.05;13.63;;;;;;;12.47;64.75;98492.03;5106008;28;20423;-60
2022/09/29 09:14:37;;;;;;;20.25;15.25;;;;;;;12.58;64.41;98487.63;5111432;28;20164;-61
2022/09/29 09:17:18;;;;;;;21.02;14.65;;;;;;;12.64;64.73;98481.84;5111229;28;20052;-60
2022/09/29 09:19:58;;;;;;;20.98;15.18;;;;;;;12.73;64.02;98488.09;5110849;28;20044;-61
2022/09/29 09:22:39;;;;;;;17.33;13.63;;;;;;;12.81;64.04;98496.22;5111299;28;20520;-60
2022/09/29 09:25:14;;;;;;;15.65;12.38;;;;;;;12.89;64.04;98483.16;5109929;28;20508;-58
2022/09/29 09:27:45;;;;;;;21.67;15.35;;;;;;;12.99;63.82;98492.94;5109812;28;20048;-62
2022/09/29 09:30:15;;;;;;;20.23;14.70;;;;;;;13.07;63.52;98493.09;5109730;28;20090;-60
2022/09/29 09:33:06;;;;;;;19.20;14.50;;;;;;;13.11;63.29;98497.13;5110933;28;20086;-60
2022/09/29 09:35:40;;;;;;;18.25;14.02;;;;;;;13.20;62.91;98497.28;5110089;28;20055;-60
2022/09/29 09:38:27;;;;;;;18.15;13.90;;;;;;;13.26;63.11;98494.09;5109525;28;20476;-61
2022/09/29 09:40:58;;;;;;;18.42;13.52;;;;;;;13.32;62.77;98498.84;5110886;28;20079;-60
2022/09/29 09:43:30;;;;;;;19.52;13.50;;;;;;;13.37;62.69;98496.63;5109915;28;20093;-60
2022/09/29 09:46:11;;;;;;;16.58;14.07;;;;;;;13.43;63.00;98489.97;5111099;28;20734;-60
2022/09/29 09:48:42;;;;;;;17.52;13.18;;;;;;;13.53;63.20;98495.31;5110696;28;20044;-61
2022/09/29 09:51:37;;;;;;;19.25;13.70;;;;;;;13.58;62.99;98493.06;5110718;28;20098;-59
2022/09/29 09:54:10;;;;;;;18.92;13.32;;;;;;;13.72;62.95;98493.63;5077794;28;20068;-60
2022/09/29 09:56:56;;;;;;;18.52;13.20;;;;;;;13.78;62.32;98493.06;5114010;28;20048;-60
2022/09/29 09:59:33;;;;;;;13.73;11.30;;;;;;;13.89;62.49;98500.88;5114594;28;20089;-60
2022/09/29 10:02:00;;;;;;;17.92;11.20;;;;;;;14.01;62.64;98498.91;5113896;28;20468;-60
2022/09/29 10:04:27;;;;;;;16.77;11.55;;;;;;;14.10;62.38;98497.22;5114694;28;20055;-60
2022/09/29 10:06:55;;;;;;;14.65;9.98;;;;;;;14.22;62.23;98497.06;5114856;28;20079;-59
2022/09/29 10:09:22;;;;;;;16.00;11.98;;;;;;;14.33;62.48;98507.50;5114727;28;20055;-62
2022/09/29 10:11:49;;;;;;;16.55;11.95;;;;;;;14.45;62.51;98498.41;5113469;28;20101;-60
2022/09/29 10:14:27;;;;;;;13.68;12.20;;;;;;;14.58;62.59;98505.19;5114478;28;20549;-60
2022/09/29 10:17:09;;;;;;;13.70;11.02;;;;;;;14.71;61.11;98505.72;5114891;28;20087;-59
2022/09/29 10:19:58;;;;;;;15.60;12.07;;;;;;;14.88;60.35;98511.22;5114327;28;20059;-59
2022/09/29 10:22:27;;;;;;;15.32;11.45;;;;;;;15.04;61.00;98510.63;5114580;28;20094;-60
2022/09/29 10:25:15;;;;;;;12.30;10.82;;;;;;;15.15;60.38;98511.38;5114222;28;20040;-59
2022/09/29 10:27:45;;;;;;;15.57;13.23;;;;;;;15.31;60.77;98513.38;5114694;28;20453;-60
2022/09/29 10:30:24;;;;;;;14.57;12.30;;;;;;;15.43;60.45;98514.00;5113015;28;20484;-60
2022/09/29 10:32:58;;;;;;;15.32;8.45;;;;;;;15.56;61.23;98511.84;5112953;28;20100;-61
2022/09/29 10:35:31;;;;;;;15.27;12.90;;;;;;;15.72;60.93;98508.50;5114469;28;20087;-60
2022/09/29 10:38:19;;;;;;;19.27;13.43;;;;;;;15.86;59.68;98514.25;5114275;28;20445;-60
2022/09/29 10:41:02;;;;;;;14.45;12.27;;;;;;;16.04;60.79;98518.75;5114127;28;20048;-59
2022/09/29 10:43:40;;;;;;;12.20;10.30;;;;;;;16.21;59.64;98520.53;5114116;28;20499;-61
2022/09/29 10:46:29;;;;;;;14.82;13.18;;;;;;;16.38;59.95;98512.69;5112861;28;20105;-62
2022/09/29 10:49:28;;;;;;;13.90;10.95;;;;;;;16.54;59.89;98518.13;5113665;28;20112;-60
2022/09/29 10:52:06;;;;;;;9.57;8.25;;;;;;;16.71;59.97;98512.88;5098358;28;20083;-64
2022/09/29 10:54:51;;;;;;;13.57;9.30;;;;;;;16.88;59.76;98515.63;5112753;28;20098;-60
2022/09/29 10:57:24;;;;;;;8.82;7.93;;;;;;;17.06;58.79;98515.56;5114409;28;20043;-61
2022/09/29 10:59:53;;;;;;;10.93;9.02;;;;;;;17.26;59.20;98520.59;5113440;28;20089;-61
2022/09/29 11:02:29;;;;;;;11.98;9.05;;;;;;;17.43;59.07;98518.84;5112503;28;20556;-61
2022/09/29 11:05:00;;;;;;;11.75;9.40;;;;;;;17.65;58.22;98511.22;5112716;28;20052;-61
2022/09/29 11:07:27;;;;;;;12.70;10.60;;;;;;;17.93;59.59;98518.88;5112450;28;20047;-60
2022/09/29 11:09:54;;;;;;;9.48;7.05;;;;;;;18.28;60.51;98521.41;5113338;28;20088;-60
2022/09/29 11:12:37;;;;;;;6.20;4.95;;;;;;;18.78;57.35;98518.63;5113377;28;20048;-60
2022/09/29 11:15:25;;;;;;;6.38;5.22;;;;;;;19.46;58.01;98523.53;5113514;28;20136;-60
2022/09/29 11:17:52;;;;;;;5.60;4.80;;;;;;;20.17;59.54;98520.72;5113480;28;20557;-60
2022/09/29 11:20:22;;;;;;;6.40;4.72;;;;;;;20.88;57.50;98518.69;5112879;28;20077;-60
2022/09/29 11:23:22;;;;;;;7.72;6.72;;;;;;;21.66;55.26;98517.34;5113302;28;20160;-60
2022/09/29 11:26:09;;;;;;;5.35;4.50;;;;;;;22.54;53.97;98509.22;5113390;28;20127;-61
2022/09/29 11:29:02;;;;;;;6.00;4.45;;;;;;;23.39;51.88;98525.16;5113132;28;20059;-60
2022/09/29 11:31:48;;;;;;;7.88;5.68;;;;;;;24.25;50.29;98518.47;5113289;28;20096;-61
2022/09/29 11:34:30;;;;;;;5.18;4.47;;;;;;;25.00;52.04;98511.91;5112022;28;20044;-60
2022/09/29 11:37:27;;;;;;;4.65;3.83;;;;;;;25.71;48.59;98514.69;5113242;28;20147;-61
2022/09/29 11:40:37;;;;;;;5.70;4.38;;;;;;;26.40;46.76;98510.44;5112824;28;20473;-62
2022/09/29 11:43:19;;;;;;;6.38;4.70;;;;;;;27.03;45.93;98513.13;5113061;28;20040;-61
2022/09/29 11:46:01;;;;;;;5.75;5.25;;;;;;;27.50;43.83;98519.81;5111796;28;20094;-65
2022/09/29 11:48:59;;;;;;;4.67;3.13;;;;;;;27.67;42.72;98518.13;5111733;28;20052;-61
2022/09/29 11:51:35;;;;;;;4.18;2.92;;;;;;;27.70;39.63;98522.25;5111501;28;20051;-61